createdAt,value
2023-02-05T00:00:31.854Z,36.33
2023-02-05T00:05:40.038Z,34.65
2023-02-05T00:10:48.457Z,34.97
2023-02-05T00:15:57.015Z,35.67
2023-02-05T00:21:10.246Z,36.60
2023-02-05T00:26:20.160Z,35.77
2023-02-05T00:31:29.196Z,35.03
2023-02-05T00:36:36.750Z,36.00
2023-02-05T00:41:44.561Z,36.37
2023-02-05T00:51:58.952Z,34.60
2023-02-05T00:57:06.244Z,37.20
2023-02-05T01:02:13.522Z,35.97
2023-02-05T01:07:22.010Z,35.13
2023-02-05T01:12:29.863Z,37.00
2023-02-05T01:17:38.190Z,35.73
2023-02-05T01:22:45.667Z,36.33
2023-02-05T01:27:52.757Z,36.47
2023-02-05T01:32:59.671Z,35.87
2023-02-05T01:38:06.372Z,40.27
2023-02-05T01:43:18.405Z,35.38
2023-02-05T01:48:30.122Z,35.13
2023-02-05T01:53:38.596Z,35.95
2023-02-05T01:58:53.794Z,35.73
2023-02-05T02:04:05.798Z,35.40
2023-02-05T02:09:13.560Z,35.40
2023-02-05T02:14:21.903Z,35.73
2023-02-05T02:19:36.073Z,35.93
2023-02-05T02:25:08.484Z,36.40
2023-02-05T02:30:27.972Z,36.37
2023-02-05T02:35:42.983Z,35.85
2023-02-05T02:40:57.439Z,35.77
2023-02-05T02:46:10.943Z,36.63
2023-02-05T02:51:22.085Z,36.20
2023-02-05T02:56:32.151Z,37.23
2023-02-05T03:01:52.361Z,36.68
2023-02-05T03:06:55.646Z,37.07
2023-02-05T03:12:02.568Z,38.17
2023-02-05T03:17:09.592Z,36.23
2023-02-05T03:22:16.308Z,37.80
2023-02-05T03:27:24.941Z,38.97
2023-02-05T03:32:51.351Z,38.40
2023-02-05T03:38:34.790Z,37.17
2023-02-05T03:43:57.837Z,37.90
2023-02-05T03:49:12.366Z,37.70
2023-02-05T03:54:41.866Z,36.97
2023-02-05T03:59:50.049Z,36.27
2023-02-05T04:04:58.802Z,37.97
2023-02-05T04:10:08.450Z,36.90
2023-02-05T04:15:15.249Z,36.93
2023-02-05T04:20:22.310Z,37.73
2023-02-05T04:25:30.883Z,37.42
2023-02-05T04:30:37.784Z,37.10
2023-02-05T04:35:45.676Z,37.50
2023-02-05T04:40:52.556Z,36.03
2023-02-05T04:51:14.410Z,36.43
2023-02-05T04:56:21.990Z,37.67
2023-02-05T05:01:29.183Z,36.97
2023-02-05T05:06:36.919Z,37.58
2023-02-05T05:11:43.907Z,36.73
2023-02-05T05:16:52.249Z,37.20
2023-02-05T05:22:00.170Z,36.58
2023-02-05T05:27:07.017Z,36.67
2023-02-05T05:32:15.151Z,37.30
2023-02-05T05:37:22.433Z,37.30
2023-02-05T05:47:54.937Z,35.83
2023-02-05T05:53:02.085Z,36.43
2023-02-05T05:58:09.879Z,38.00
2023-02-05T06:03:16.949Z,38.40
2023-02-05T06:08:25.032Z,38.08
2023-02-05T06:13:33.081Z,37.58
2023-02-05T06:18:40.198Z,38.50
2023-02-05T06:23:47.484Z,37.97
2023-02-05T06:28:56.023Z,38.63
2023-02-05T06:34:02.714Z,41.73
2023-02-05T06:39:09.607Z,39.93
2023-02-05T06:44:16.744Z,39.38
2023-02-05T06:49:23.527Z,39.23
2023-02-05T06:54:32.544Z,37.55
2023-02-05T06:59:40.671Z,36.57
2023-02-05T07:04:48.190Z,36.70
2023-02-05T07:09:55.006Z,36.67
2023-02-05T07:15:01.923Z,36.73
2023-02-05T07:20:09.482Z,40.93
2023-02-05T07:25:18.264Z,37.67
2023-02-05T07:30:25.935Z,37.70
2023-02-05T07:35:37.219Z,37.58
2023-02-05T07:40:44.428Z,44.63
2023-02-05T07:45:59.528Z,57.47
2023-02-05T07:51:08.733Z,56.58
2023-02-05T07:56:17.326Z,57.27
2023-02-05T08:01:24.650Z,51.60
2023-02-05T08:06:31.828Z,49.37
2023-02-05T08:11:39.482Z,47.05
2023-02-05T08:16:48.141Z,46.87
2023-02-05T08:21:55.032Z,49.27
2023-02-05T08:27:02.344Z,46.67
2023-02-05T08:32:09.634Z,50.67
2023-02-05T08:37:16.833Z,51.50
2023-02-05T08:47:29.477Z,49.03
2023-02-05T08:57:43.003Z,50.30
2023-02-05T09:02:49.649Z,49.10
2023-02-05T09:07:56.301Z,48.57
2023-02-05T09:13:03.735Z,49.10
2023-02-05T09:18:10.389Z,49.43
2023-02-05T09:28:24.533Z,50.05
2023-02-05T09:33:31.504Z,48.00
2023-02-05T09:38:39.457Z,48.58
2023-02-05T09:44:01.547Z,50.27
2023-02-05T09:49:23.755Z,48.20
2023-02-05T09:54:37.440Z,50.10
2023-02-05T09:59:49.462Z,49.42
2023-02-05T10:04:57.308Z,48.47
2023-02-05T10:10:33.321Z,47.47
2023-02-05T10:16:00.383Z,47.25
2023-02-05T10:21:31.144Z,47.90
2023-02-05T10:26:42.552Z,48.33
2023-02-05T10:31:59.622Z,50.67
2023-02-05T10:42:28.052Z,49.27
2023-02-05T10:47:51.571Z,48.67
2023-02-05T10:52:58.743Z,45.77
2023-02-05T10:58:25.707Z,45.20
2023-02-05T11:03:33.314Z,46.05
2023-02-05T11:08:45.493Z,45.50
2023-02-05T11:13:56.921Z,45.63
2023-02-05T11:19:04.312Z,45.57
2023-02-05T11:24:16.333Z,45.10
2023-02-05T11:29:24.800Z,45.37
2023-02-05T11:34:31.637Z,46.00
2023-02-05T11:39:41.618Z,45.65
2023-02-05T11:44:55.996Z,44.90
2023-02-05T11:50:03.658Z,46.17
2023-02-05T11:55:15.242Z,45.13
2023-02-05T12:00:24.396Z,46.87
2023-02-05T12:05:36.193Z,46.85
2023-02-05T12:10:54.063Z,46.27
2023-02-05T12:16:40.608Z,46.33
2023-02-05T12:22:16.145Z,46.30
2023-02-05T12:27:33.142Z,46.13
2023-02-05T12:32:56.126Z,47.08
2023-02-05T12:38:32.520Z,45.70
2023-02-05T12:43:44.610Z,46.00
2023-02-05T12:54:27.648Z,45.07
2023-02-05T12:59:55.169Z,45.13
2023-02-05T13:05:35.685Z,45.97
2023-02-05T13:11:09.282Z,44.83
2023-02-05T13:16:19.835Z,45.27
2023-02-05T13:21:45.849Z,46.07
2023-02-05T13:27:12.549Z,45.50
2023-02-05T13:32:23.797Z,46.37
2023-02-05T13:37:59.519Z,45.12
2023-02-05T13:43:23.842Z,43.87
2023-02-05T13:48:59.715Z,43.58
2023-02-05T13:54:32.513Z,43.30
2023-02-05T13:59:46.951Z,42.20
2023-02-05T14:04:54.989Z,43.77
2023-02-05T14:10:03.612Z,42.93
2023-02-05T14:15:25.199Z,41.37
2023-02-05T14:20:39.492Z,41.65
2023-02-05T14:26:09.528Z,43.07
2023-02-05T14:31:46.523Z,41.30
2023-02-05T14:36:54.389Z,41.13
2023-02-05T14:42:06.137Z,39.80
2023-02-05T14:47:31.745Z,40.43
2023-02-05T14:52:43.525Z,41.15
2023-02-05T14:58:04.942Z,41.40
2023-02-05T15:03:20.487Z,40.67
2023-02-05T15:08:32.372Z,39.55
2023-02-05T15:13:39.632Z,41.30
2023-02-05T15:19:02.119Z,40.67
2023-02-05T15:24:21.474Z,38.13
2023-02-05T15:29:47.068Z,39.43
2023-02-05T15:35:10.903Z,41.57
2023-02-05T15:40:33.246Z,45.97
2023-02-05T15:45:45.742Z,43.67
2023-02-05T15:51:06.525Z,48.02
2023-02-05T15:56:35.235Z,44.37
2023-02-05T16:01:49.198Z,46.40
2023-02-05T16:06:57.230Z,40.00
2023-02-05T16:12:15.582Z,42.57
2023-02-05T16:17:33.863Z,41.37
2023-02-05T16:22:56.160Z,40.48
2023-02-05T16:28:07.609Z,42.40
2023-02-05T16:33:50.326Z,43.03
2023-02-05T16:39:05.328Z,42.87
2023-02-05T16:44:31.336Z,42.50
2023-02-05T16:49:38.107Z,44.33
2023-02-05T16:54:44.983Z,43.37
2023-02-05T17:00:09.171Z,40.20
2023-02-05T17:05:28.516Z,38.20
2023-02-05T17:10:59.226Z,41.42
2023-02-05T17:16:31.883Z,42.70
2023-02-05T17:21:40.936Z,44.33
2023-02-05T17:26:50.178Z,40.10
2023-02-05T17:31:59.082Z,37.80
2023-02-05T17:37:06.089Z,39.13
2023-02-05T17:42:26.191Z,41.37
2023-02-05T17:47:34.075Z,39.85
2023-02-05T17:52:41.509Z,39.80
2023-02-05T17:57:49.749Z,40.50
2023-02-05T18:02:57.565Z,37.83
2023-02-05T18:08:04.536Z,42.93
2023-02-05T18:18:17.749Z,36.90
2023-02-05T18:23:29.109Z,36.70
2023-02-05T18:28:34.139Z,39.10
2023-02-05T18:33:41.513Z,38.98
2023-02-05T18:38:49.024Z,36.60
2023-02-05T18:43:57.469Z,36.47
2023-02-05T18:49:05.067Z,37.50
2023-02-05T18:54:13.585Z,37.93
2023-02-05T18:59:21.990Z,34.43
2023-02-05T19:04:31.774Z,35.83
2023-02-05T19:09:38.820Z,34.75
2023-02-05T19:14:47.240Z,37.23
2023-02-05T19:19:55.849Z,49.27
2023-02-05T19:25:03.334Z,41.57
2023-02-05T19:30:12.553Z,40.37
2023-02-05T19:35:19.701Z,44.33
2023-02-05T19:40:27.612Z,38.85
2023-02-05T19:45:39.936Z,38.80
2023-02-05T19:50:47.712Z,35.50
2023-02-05T19:55:55.014Z,34.67
2023-02-05T20:01:07.595Z,35.37
2023-02-05T20:06:19.221Z,34.97
2023-02-05T20:11:31.419Z,32.70
2023-02-05T20:16:45.244Z,32.73
2023-02-05T20:21:52.398Z,33.33
2023-02-05T20:26:59.359Z,35.03
2023-02-05T20:32:06.418Z,37.03
2023-02-05T20:37:14.421Z,38.00
2023-02-05T20:42:22.116Z,37.57
2023-02-05T20:47:30.160Z,41.00
2023-02-05T20:52:37.377Z,37.47
2023-02-05T20:57:45.911Z,40.13
2023-02-05T21:02:52.925Z,36.60
2023-02-05T21:07:59.712Z,35.47
2023-02-05T21:13:07.156Z,39.35
2023-02-05T21:18:16.909Z,35.73
2023-02-05T21:23:24.251Z,38.73
2023-02-05T21:28:31.969Z,34.48
2023-02-05T21:33:39.775Z,32.78
2023-02-05T21:38:48.118Z,31.93
2023-02-05T21:43:59.194Z,38.67
2023-02-05T21:49:06.712Z,41.57
2023-02-05T21:54:14.794Z,40.67
2023-02-05T21:59:25.864Z,35.90
2023-02-05T22:04:34.560Z,35.63
2023-02-05T22:09:42.389Z,40.25
2023-02-05T22:14:50.498Z,39.13
2023-02-05T22:19:57.189Z,47.70
2023-02-05T22:25:05.163Z,79.80
2023-02-05T22:30:18.212Z,77.73
2023-02-05T22:35:25.194Z,42.47
2023-02-05T22:45:40.518Z,37.87
2023-02-05T22:50:48.086Z,38.60
2023-02-05T22:55:57.923Z,38.70
2023-02-05T23:01:14.915Z,34.17
2023-02-05T23:06:32.666Z,32.90
2023-02-05T23:11:44.221Z,32.03
2023-02-05T23:16:51.137Z,32.70
2023-02-05T23:21:58.104Z,31.97
2023-02-05T23:27:06.083Z,32.83
2023-02-05T23:32:14.514Z,33.07
2023-02-05T23:37:23.982Z,28.53
2023-02-05T23:42:32.153Z,30.97
2023-02-05T23:47:40.680Z,31.45
2023-02-05T23:52:47.860Z,35.20
2023-02-05T23:57:55.819Z,33.57
